Time;durP1;ratioP1;P1;durP2;ratioP2;P2;SDS_P1;SDS_P2;PMS_P1;PMS_P2;Temp;Humidity;BMP_temperature;BMP_pressure;BME280_temperature;BME280_humidity;BME280_pressure;Samples;Min_cycle;Max_cycle;Signal;HPM_P1;HPM_P2
2022/11/08 00:02:30;;;;;;;9.34;8.63;;;;;;;4.05;67.57;101817.62;464361;114;922609;-74
2022/11/08 00:03:34;;;;;;;9.33;8.66;;;;;;;4.06;67.59;101823.87;464490;114;922782;-75
2022/11/08 00:04:37;;;;;;;9.63;8.93;;;;;;;4.06;67.60;101822.03;464533;113;930550;-74
2022/11/08 00:14:01;;;;;;;;;;;;;;;4.17;67.74;101818.33;468213;114;922068;-74
2022/11/08 00:15:07;;;;;;;9.98;9.26;;;;;;;4.17;67.69;101824.58;464349;114;922299;-74
2022/11/08 00:16:10;;;;;;;10.84;9.93;;;;;;;4.15;67.75;101814.91;462611;114;922480;-74
2022/11/08 00:17:15;;;;;;;10.53;9.79;;;;;;;4.14;67.75;101821.30;456538;116;922498;-74
2022/11/08 00:18:18;;;;;;;10.92;10.06;;;;;;;4.14;67.77;101819.45;456333;116;922657;-74
2022/11/08 00:19:21;;;;;;;11.06;10.28;;;;;;;4.15;67.72;101820.30;456425;116;922628;-74
2022/11/08 00:20:24;;;;;;;10.24;9.55;;;;;;;4.14;67.67;101814.05;456543;116;922685;-74
2022/11/08 00:21:27;;;;;;;9.81;9.11;;;;;;;4.16;67.69;101816.62;456813;114;922981;-75
2022/11/08 00:22:30;;;;;;;9.84;9.14;;;;;;;4.17;67.66;101823.72;459398;115;922598;-74
2022/11/08 00:23:33;;;;;;;9.38;8.54;;;;;;;4.17;67.69;101818.33;459362;115;923136;-74
2022/11/08 00:24:36;;;;;;;9.11;8.41;;;;;;;4.19;67.61;101819.02;459351;115;922973;-74
2022/11/08 00:25:39;;;;;;;9.76;8.88;;;;;;;4.19;67.67;101822.57;448249;118;922598;-74
2022/11/08 00:26:42;;;;;;;8.65;8.01;;;;;;;4.21;67.66;101819.73;448935;115;922585;-74
2022/11/08 00:27:45;;;;;;;8.88;8.17;;;;;;;4.23;67.59;101820.45;459363;115;923050;-74
2022/11/08 00:28:48;;;;;;;8.63;8.04;;;;;;;4.23;67.46;101816.91;459315;115;922968;-74
2022/11/08 00:29:51;;;;;;;8.15;7.63;;;;;;;4.24;67.48;101818.61;460255;114;922612;-74
2022/11/08 00:30:55;;;;;;;8.12;7.62;;;;;;;4.26;67.52;101816.60;463120;114;922587;-74
2022/11/08 00:31:57;;;;;;;8.58;8.02;;;;;;;4.25;67.47;101823.84;463423;114;931040;-74
2022/11/08 00:33:00;;;;;;;8.06;7.38;;;;;;;4.26;67.44;101816.60;464626;113;922858;-74
2022/11/08 00:34:03;;;;;;;7.99;7.49;;;;;;;4.27;67.44;101813.77;464571;114;922915;-74
2022/11/08 00:35:07;;;;;;;7.97;7.48;;;;;;;4.26;67.43;101814.75;464568;113;922450;-74
2022/11/08 00:36:10;;;;;;;8.30;7.70;;;;;;;4.29;67.41;101819.03;464566;113;922471;-74
2022/11/08 00:37:13;;;;;;;8.09;7.59;;;;;;;4.29;67.33;101811.78;459801;113;922997;-74
2022/11/08 00:38:16;;;;;;;8.58;7.98;;;;;;;4.29;67.27;101811.78;456534;115;922541;-74
2022/11/08 00:39:20;;;;;;;8.76;8.16;;;;;;;4.30;67.26;101815.34;456412;116;930528;-75
2022/11/08 00:40:23;;;;;;;7.99;7.46;;;;;;;4.30;67.25;101809.94;456587;115;924628;-74
2022/11/08 00:41:26;;;;;;;8.61;8.07;;;;;;;4.29;67.19;101806.38;456626;115;923681;-74
2022/11/08 00:42:29;;;;;;;9.24;8.63;;;;;;;4.30;67.17;101809.94;456550;115;922942;-74
2022/11/08 00:43:32;;;;;;;9.99;9.33;;;;;;;4.29;67.19;101810.93;456467;115;922532;-74
2022/11/08 00:44:35;;;;;;;10.02;9.31;;;;;;;4.29;67.26;101806.38;456476;116;922879;-74
2022/11/08 00:45:38;;;;;;;9.09;8.49;;;;;;;4.29;67.17;101808.23;456503;115;922848;-74
2022/11/08 00:46:41;;;;;;;9.81;9.21;;;;;;;4.29;67.23;101811.78;456541;115;922530;-74
2022/11/08 00:47:44;;;;;;;10.06;9.36;;;;;;;4.30;67.19;101807.23;456450;115;922646;-74
2022/11/08 00:48:47;;;;;;;10.20;9.41;;;;;;;4.31;67.19;101806.22;456439;116;922928;-74
2022/11/08 00:49:50;;;;;;;11.12;10.34;;;;;;;4.31;67.27;101804.38;456481;115;922703;-75
2022/11/08 00:50:53;;;;;;;10.28;9.47;;;;;;;4.33;67.21;101806.94;456473;115;922631;-74
2022/11/08 00:51:56;;;;;;;10.34;9.61;;;;;;;4.33;67.27;101801.54;456497;116;922677;-74
2022/11/08 00:52:59;;;;;;;10.51;9.76;;;;;;;4.33;67.25;101796.99;456482;115;922547;-74
2022/11/08 00:54:05;;;;;;;10.18;9.38;;;;;;;4.35;67.15;101800.41;456475;115;923072;-75
2022/11/08 00:55:08;;;;;;;11.17;10.23;;;;;;;4.35;67.13;101796.86;456321;116;922541;-74
2022/11/08 00:56:13;;;;;;;10.48;9.69;;;;;;;4.36;67.14;101798.53;456453;116;923131;-74
2022/11/08 00:57:15;;;;;;;10.97;10.17;;;;;;;4.38;67.17;101796.55;456521;116;922469;-74
2022/11/08 00:58:18;;;;;;;11.30;10.41;;;;;;;4.37;67.25;101795.70;456598;115;922439;-74
2022/11/08 00:59:23;;;;;;;11.16;10.34;;;;;;;4.38;67.21;101789.30;455020;115;922420;-74
2022/11/08 01:00:26;;;;;;;10.30;9.54;;;;;;;4.39;67.28;101782.91;455417;116;922717;-73
2022/11/08 01:01:30;;;;;;;10.44;9.61;;;;;;;4.40;67.16;101790.02;454700;116;922520;-74
2022/11/08 01:02:33;;;;;;;10.84;9.96;;;;;;;4.40;67.15;101784.62;454803;116;922845;-74
2022/11/08 01:03:36;;;;;;;10.84;10.06;;;;;;;4.41;67.25;101782.78;454630;116;922595;-74
2022/11/08 01:04:39;;;;;;;9.88;9.10;;;;;;;4.41;67.16;101789.00;454660;116;922816;-74
2022/11/08 01:05:41;;;;;;;9.49;8.85;;;;;;;4.42;67.20;101779.91;454663;116;922598;-74
2022/11/08 01:06:45;;;;;;;9.28;8.59;;;;;;;4.42;67.28;101785.31;454638;116;922809;-74
2022/11/08 01:07:48;;;;;;;9.81;9.06;;;;;;;4.44;67.19;101782.47;454565;116;922554;-74
2022/11/08 01:08:53;;;;;;;9.84;9.08;;;;;;;4.45;67.13;101785.04;454646;116;922574;-74
2022/11/08 01:09:56;;;;;;;10.53;9.73;;;;;;;4.45;67.14;101790.44;454445;116;922563;-74
2022/11/08 01:11:02;;;;;;;10.05;9.35;;;;;;;4.45;67.12;101785.04;454618;116;922560;-74
2022/11/08 01:12:05;;;;;;;10.84;9.99;;;;;;;4.46;67.12;101780.48;454423;116;922570;-74
2022/11/08 01:13:09;;;;;;;9.70;8.95;;;;;;;4.47;67.18;101785.72;454642;116;922653;-74
2022/11/08 01:14:13;;;;;;;9.59;8.91;;;;;;;4.48;67.16;101782.03;454537;116;922911;-74
2022/11/08 01:15:16;;;;;;;10.02;9.22;;;;;;;4.47;67.03;101783.02;454489;116;930650;-74
2022/11/08 01:16:21;;;;;;;10.82;9.96;;;;;;;4.49;67.00;101791.84;457408;114;922788;-74
2022/11/08 01:17:24;;;;;;;9.59;8.87;;;;;;;4.50;66.98;101787.30;462415;114;922996;-74
2022/11/08 01:18:27;;;;;;;9.90;9.20;;;;;;;4.49;66.92;101781.04;452464;114;922849;-74
2022/11/08 01:19:30;;;;;;;9.21;8.59;;;;;;;4.50;67.02;101776.49;450762;117;922477;-73
2022/11/08 01:20:39;;;;;;;9.61;8.91;;;;;;;4.50;66.97;101779.19;450737;117;922474;-74
2022/11/08 01:21:42;;;;;;;9.68;8.99;;;;;;;4.51;67.01;101780.91;450242;117;922997;-74
2022/11/08 01:22:45;;;;;;;8.98;8.39;;;;;;;4.50;66.92;101780.05;450820;117;922543;-74
2022/11/08 01:23:48;;;;;;;9.58;8.94;;;;;;;4.51;66.98;101783.60;450785;117;922535;-74
2022/11/08 01:24:51;;;;;;;10.01;9.44;;;;;;;4.51;66.97;101780.91;450713;117;922651;-74
2022/11/08 01:25:54;;;;;;;10.63;9.82;;;;;;;4.51;66.87;101784.45;450679;117;930745;-74
2022/11/08 01:26:57;;;;;;;10.43;9.73;;;;;;;4.51;66.96;101779.05;450840;117;923012;-74
2022/11/08 01:28:00;;;;;;;10.07;9.34;;;;;;;4.53;66.86;101782.44;450841;117;923311;-74
2022/11/08 01:29:03;;;;;;;9.42;8.85;;;;;;;4.52;66.86;101780.73;450847;117;922567;-74
2022/11/08 01:30:07;;;;;;;10.29;9.61;;;;;;;4.52;66.92;101780.73;456366;114;922603;-74
2022/11/08 01:31:14;;;;;;;10.67;9.95;;;;;;;4.53;66.86;101781.58;462674;114;922455;-74
2022/11/08 01:32:17;;;;;;;10.38;9.69;;;;;;;4.53;66.88;101777.04;462403;114;922503;-74
2022/11/08 01:33:19;;;;;;;10.46;9.67;;;;;;;4.54;66.87;101778.75;462613;114;922956;-74
2022/11/08 01:34:22;;;;;;;10.27;9.58;;;;;;;4.55;66.87;101779.59;462623;114;922894;-74
2022/11/08 01:35:25;;;;;;;10.04;9.23;;;;;;;4.55;66.83;101780.45;462682;114;922733;-74
2022/11/08 01:36:29;;;;;;;10.03;9.44;;;;;;;4.55;66.82;101775.05;462527;114;922536;-74
2022/11/08 01:37:32;;;;;;;10.97;10.27;;;;;;;4.54;66.87;101778.75;454748;114;923129;-74
2022/11/08 01:38:35;;;;;;;10.89;10.04;;;;;;;4.54;66.78;101780.59;454200;116;922483;-74
2022/11/08 01:39:38;;;;;;;10.18;9.58;;;;;;;4.54;66.82;101781.45;454147;116;922496;-74
2022/11/08 01:40:46;;;;;;;9.81;9.10;;;;;;;4.54;66.75;101777.89;454279;116;922985;-74
2022/11/08 01:41:49;;;;;;;9.87;9.27;;;;;;;4.54;66.79;101780.59;454021;116;923085;-74
2022/11/08 01:42:52;;;;;;;9.26;8.69;;;;;;;4.55;66.85;101780.45;454211;116;922524;-74
2022/11/08 01:43:57;;;;;;;10.05;9.33;;;;;;;4.55;66.78;101779.59;454149;116;922595;-74
2022/11/08 01:45:03;;;;;;;9.89;9.28;;;;;;;4.56;66.91;101773.20;453978;116;930574;-74
2022/11/08 01:46:13;;;;;;;9.37;8.80;;;;;;;4.58;66.83;101777.45;454083;116;922855;-74
2022/11/08 01:47:16;;;;;;;9.88;9.24;;;;;;;4.59;66.79;101775.59;454061;116;922487;-74
2022/11/08 01:48:19;;;;;;;10.45;9.59;;;;;;;4.59;66.82;101779.16;454236;116;922393;-74
2022/11/08 01:49:28;;;;;;;9.11;8.46;;;;;;;4.60;66.79;101775.46;454189;116;922965;-74
2022/11/08 01:50:31;;;;;;;9.53;8.93;;;;;;;4.61;66.87;101774.47;454102;116;923443;-74
2022/11/08 01:51:38;;;;;;;9.03;8.44;;;;;;;4.61;66.87;101773.62;454286;116;922509;-74
2022/11/08 01:52:47;;;;;;;9.19;8.57;;;;;;;4.61;66.87;101769.06;453863;116;922960;-74
2022/11/08 01:53:51;;;;;;;9.14;8.62;;;;;;;4.61;66.80;101769.06;454049;116;922532;-74
2022/11/08 01:55:18;;;;;;;9.08;8.58;;;;;;;4.60;66.75;101775.46;454250;116;922582;-74
2022/11/08 01:56:21;;;;;;;9.63;8.94;;;;;;;4.62;66.88;101775.33;454028;116;922571;-74
2022/11/08 01:57:42;;;;;;;9.86;9.26;;;;;;;4.61;66.77;101774.47;454269;116;922478;-74
2022/11/08 01:58:48;;;;;;;8.23;7.76;;;;;;;4.61;66.84;101765.52;453792;116;922651;-74
2022/11/08 01:59:55;;;;;;;9.08;8.49;;;;;;;4.60;66.88;101767.36;459592;115;922593;-73
2022/11/08 02:01:00;;;;;;;8.90;8.35;;;;;;;4.60;66.89;101767.36;461519;115;922806;-74
2022/11/08 02:02:05;;;;;;;9.07;8.41;;;;;;;4.61;66.79;101773.62;461500;115;922852;-74
2022/11/08 02:03:11;;;;;;;8.88;8.29;;;;;;;4.60;66.78;101767.36;461589;115;922489;-74
2022/11/08 02:04:15;;;;;;;8.81;8.18;;;;;;;4.61;66.79;101769.06;461457;115;922659;-74
2022/11/08 02:05:25;;;;;;;8.69;8.19;;;;;;;4.60;66.78;101772.77;461520;115;922635;-74
2022/11/08 02:06:29;;;;;;;8.73;8.23;;;;;;;4.61;66.85;101763.66;461493;115;923029;-74
2022/11/08 02:07:33;;;;;;;7.39;6.96;;;;;;;4.61;66.76;101768.22;461538;114;922921;-74
2022/11/08 02:08:42;;;;;;;7.91;7.43;;;;;;;4.61;66.77;101771.77;461624;115;922557;-73
2022/11/08 02:09:47;;;;;;;7.56;7.06;;;;;;;4.63;66.80;101768.08;461417;115;922668;-74
2022/11/08 02:10:52;;;;;;;7.99;7.49;;;;;;;4.62;66.64;101761.81;461501;115;922506;-74
2022/11/08 02:11:55;;;;;;;7.43;6.93;;;;;;;4.61;66.75;101766.36;461480;115;922457;-74
2022/11/08 02:12:59;;;;;;;7.65;7.15;;;;;;;4.61;66.76;101762.81;461568;115;922823;-74
2022/11/08 02:14:04;;;;;;;7.54;7.10;;;;;;;4.61;66.80;101765.52;460209;115;923262;-74
2022/11/08 02:15:09;;;;;;;7.18;6.75;;;;;;;4.62;66.74;101772.63;457337;116;922503;-74
2022/11/08 02:16:15;;;;;;;6.92;6.48;;;;;;;4.61;66.81;101763.66;457262;116;922514;-74
2022/11/08 02:17:18;;;;;;;7.62;7.12;;;;;;;4.62;66.79;101764.52;457228;116;922600;-74
2022/11/08 02:18:24;;;;;;;7.49;6.91;;;;;;;4.63;66.73;101759.97;457414;116;922770;-74
2022/11/08 02:19:48;;;;;;;7.19;6.78;;;;;;;4.63;66.73;101763.52;457172;116;922658;-74
2022/11/08 02:21:25;;;;;;;7.36;6.84;;;;;;;4.63;66.74;101765.37;457202;116;922492;-74
2022/11/08 02:22:34;;;;;;;6.41;5.89;;;;;;;4.61;66.85;101758.27;457192;116;922762;-74
2022/11/08 02:23:58;;;;;;;6.01;5.69;;;;;;;4.61;66.81;101760.96;456936;116;922506;-74
2022/11/08 02:25:02;;;;;;;6.18;5.78;;;;;;;4.61;66.81;101760.11;457142;116;922903;-74
2022/11/08 02:26:05;;;;;;;6.25;5.85;;;;;;;4.61;66.82;101765.52;457265;116;922951;-74
2022/11/08 02:27:09;;;;;;;6.24;5.84;;;;;;;4.61;66.90;101762.81;457420;116;922885;-74
2022/11/08 02:28:13;;;;;;;6.21;5.83;;;;;;;4.61;66.89;101760.11;457255;116;922714;-74
2022/11/08 02:29:28;;;;;;;6.20;5.80;;;;;;;4.62;66.80;101761.81;457361;116;923147;-74
2022/11/08 02:30:33;;;;;;;6.59;6.08;;;;;;;4.63;66.78;101758.13;465425;113;922513;-74
2022/11/08 02:31:35;;;;;;;5.66;5.27;;;;;;;4.63;66.79;101759.97;466324;113;922516;-74
2022/11/08 02:32:40;;;;;;;6.74;6.34;;;;;;;4.63;66.85;101758.95;462571;113;922504;-74
2022/11/08 02:33:43;;;;;;;6.26;5.96;;;;;;;4.64;66.72;101759.80;462523;114;922520;-75
2022/11/08 02:34:50;;;;;;;6.18;5.80;;;;;;;4.63;66.68;101755.42;465352;113;922849;-74
2022/11/08 02:35:55;;;;;;;6.34;5.94;;;;;;;4.63;66.68;101764.34;465241;114;922503;-74
2022/11/08 02:37:00;;;;;;;6.05;5.56;;;;;;;4.64;66.76;101767.91;462261;114;922657;-74
2022/11/08 02:38:03;;;;;;;6.42;6.02;;;;;;;4.66;66.68;101765.06;457186;115;922573;-74
2022/11/08 02:39:06;;;;;;;5.84;5.53;;;;;;;4.66;66.65;101765.06;457311;116;930609;-74
2022/11/08 02:40:10;;;;;;;6.14;5.79;;;;;;;4.67;66.69;101759.52;457248;115;922832;-74
2022/11/08 02:41:13;;;;;;;5.58;5.28;;;;;;;4.69;66.76;101760.20;457279;115;930605;-74
2022/11/08 02:42:18;;;;;;;6.38;5.94;;;;;;;4.68;66.63;101761.23;457358;115;922710;-74
2022/11/08 02:43:22;;;;;;;6.07;5.65;;;;;;;4.69;66.63;101767.45;457173;116;922464;-74
2022/11/08 02:44:25;;;;;;;5.99;5.59;;;;;;;4.68;66.68;101769.34;457110;115;922523;-74
2022/11/08 02:45:28;;;;;;;6.78;6.34;;;;;;;4.69;66.57;101773.71;457321;115;922507;-74
2022/11/08 02:46:31;;;;;;;6.14;5.75;;;;;;;4.68;66.53;101765.78;457348;115;922766;-74
2022/11/08 02:47:34;;;;;;;5.56;5.16;;;;;;;4.67;66.50;101761.37;457413;115;922628;-74
2022/11/08 02:48:37;;;;;;;5.53;5.21;;;;;;;4.66;66.52;101763.22;457429;116;922900;-74
2022/11/08 02:49:40;;;;;;;5.71;5.40;;;;;;;4.66;66.46;101760.52;457396;115;923098;-74
2022/11/08 02:50:43;;;;;;;5.44;5.14;;;;;;;4.66;66.53;101768.62;457372;115;923203;-74
2022/11/08 02:51:46;;;;;;;5.09;4.76;;;;;;;4.65;66.54;101764.21;457364;116;922556;-74
2022/11/08 02:52:49;;;;;;;5.06;4.65;;;;;;;4.65;66.58;101768.76;457376;115;922755;-74
2022/11/08 02:53:52;;;;;;;4.86;4.51;;;;;;;4.65;66.55;101760.66;457386;115;922564;-74
2022/11/08 02:54:55;;;;;;;4.80;4.40;;;;;;;4.65;66.62;101771.46;457327;116;922559;-74
2022/11/08 02:55:58;;;;;;;5.03;4.72;;;;;;;4.65;66.63;101775.02;457376;115;922586;-74
2022/11/08 02:57:01;;;;;;;4.94;4.64;;;;;;;4.65;66.53;101766.91;457395;115;922602;-74
2022/11/08 02:58:04;;;;;;;4.94;4.64;;;;;;;4.66;66.59;101767.77;457377;116;922581;-74
2022/11/08 02:59:07;;;;;;;6.08;4.76;;;;;;;4.67;66.53;101767.62;457362;115;922918;-74
2022/11/08 03:00:12;;;;;;;4.29;4.01;;;;;;;4.69;66.46;101767.45;452266;115;922436;-74
2022/11/08 03:01:15;;;;;;;5.11;4.74;;;;;;;4.68;66.50;101754.97;449272;118;922458;-74
2022/11/08 03:02:18;;;;;;;4.81;4.51;;;;;;;4.69;66.47;101753.95;449339;118;922461;-74
2022/11/08 03:03:21;;;;;;;4.31;4.08;;;;;;;4.68;66.52;101750.42;449369;118;922474;-74
2022/11/08 03:04:24;;;;;;;4.25;4.05;;;;;;;4.68;66.42;101753.13;449286;118;922703;-74
2022/11/08 03:05:27;;;;;;;4.37;4.17;;;;;;;4.68;66.41;101758.53;449437;118;922599;-74
2022/11/08 03:06:30;;;;;;;4.20;3.89;;;;;;;4.68;66.37;101753.13;449317;118;922474;-74
2022/11/08 03:07:33;;;;;;;4.27;4.01;;;;;;;4.67;66.27;101750.56;449328;118;922496;-74
2022/11/08 03:08:36;;;;;;;4.16;3.86;;;;;;;4.66;66.29;101756.95;449410;118;922852;-74
2022/11/08 03:09:39;;;;;;;3.84;3.64;;;;;;;4.65;66.30;101755.25;449381;118;922720;-74
2022/11/08 03:10:42;;;;;;;3.91;3.71;;;;;;;4.64;66.31;101757.09;455935;115;922566;-74
2022/11/08 03:11:45;;;;;;;4.01;3.81;;;;;;;4.63;66.41;101755.42;460808;115;922496;-74
2022/11/08 03:12:57;;;;;;;3.71;3.44;;;;;;;4.63;66.37;101760.83;460893;115;922688;-74
2022/11/08 06:03:05;;;;;;;8.99;7.45;;;;;;;3.70;73.35;101763.36;475169;110;938106;-75
2022/11/08 06:04:08;;;;;;;7.34;6.94;;;;;;;3.69;73.07;101758.98;477063;111;922537;-77
2022/11/08 06:05:11;;;;;;;7.78;7.24;;;;;;;3.77;72.91;101762.66;477173;111;922858;-75
2022/11/08 06:06:18;;;;;;;7.14;6.67;;;;;;;3.85;72.77;101766.50;477087;111;922486;-75
2022/11/08 06:07:21;;;;;;;6.98;6.56;;;;;;;3.91;72.74;101758.70;476947;109;922458;-76
2022/11/08 06:08:25;;;;;;;14.44;6.88;;;;;;;3.98;72.62;101764.34;477144;110;922820;-76
2022/11/08 06:09:28;;;;;;;7.07;6.59;;;;;;;4.04;72.61;101761.08;477144;111;930469;-75
2022/11/08 06:10:31;;;;;;;6.94;6.48;;;;;;;4.11;72.56;101764.91;477229;111;922582;-75
2022/11/08 06:11:34;;;;;;;7.48;7.00;;;;;;;4.18;72.48;101764.20;477220;110;922608;-75
2022/11/08 06:12:37;;;;;;;7.67;7.17;;;;;;;4.24;72.37;101770.88;477219;109;922903;-76
2022/11/08 06:13:41;;;;;;;6.66;6.24;;;;;;;4.30;72.36;101762.17;477220;111;923400;-76
2022/11/08 06:14:44;;;;;;;7.36;6.89;;;;;;;4.35;72.19;101762.61;477124;110;922376;-76
2022/11/08 06:15:47;;;;;;;7.55;7.04;;;;;;;4.41;72.12;101762.00;477150;110;930474;-75
2022/11/08 06:16:50;;;;;;;7.76;7.26;;;;;;;4.47;72.08;101761.42;477207;111;922506;-76
2022/11/08 06:17:53;;;;;;;6.87;6.47;;;;;;;4.54;71.95;101767.09;477171;111;922732;-75
2022/11/08 06:18:56;;;;;;;7.09;6.59;;;;;;;4.59;71.85;101764.80;477223;111;922454;-75
2022/11/08 06:19:59;;;;;;;7.86;7.35;;;;;;;4.64;71.72;101762.50;477207;111;922714;-72
2022/11/08 06:21:03;;;;;;;7.08;6.41;;;;;;;4.69;71.51;101767.45;477173;111;922471;-74
2022/11/08 06:22:06;;;;;;;6.72;6.32;;;;;;;4.74;71.39;101770.59;467655;113;922414;-74
2022/11/08 06:23:09;;;;;;;7.58;7.12;;;;;;;4.77;71.26;101764.88;471526;112;922852;-72
2022/11/08 06:24:14;;;;;;;7.81;7.31;;;;;;;4.82;71.23;101765.28;479891;110;922573;-73
2022/11/08 06:25:17;;;;;;;7.92;7.30;;;;;;;4.87;71.02;101762.98;483886;109;922989;-73
2022/11/08 06:26:22;;;;;;;6.89;6.39;;;;;;;4.90;70.99;101760.00;477124;111;922430;-73
2022/11/08 06:27:25;;;;;;;7.71;7.03;;;;;;;4.96;70.86;101764.81;467609;113;922804;-76
2022/11/08 06:28:28;;;;;;;7.22;6.77;;;;;;;5.00;70.70;101760.80;471493;112;922922;-75
2022/11/08 06:29:32;;;;;;;7.80;7.30;;;;;;;5.04;70.51;101754.08;471479;112;922852;-76
2022/11/08 06:30:35;;;;;;;8.16;7.57;;;;;;;5.08;70.37;101758.18;465940;112;922474;-75
2022/11/08 06:31:38;;;;;;;7.45;6.95;;;;;;;5.11;70.27;101760.59;466525;113;922472;-76
2022/11/08 06:32:43;;;;;;;7.42;6.84;;;;;;;5.13;70.07;101753.17;466099;113;923148;-76
2022/11/08 06:33:46;;;;;;;7.84;7.33;;;;;;;5.17;69.99;101749.19;466633;113;922596;-75
2022/11/08 06:34:49;;;;;;;8.63;7.95;;;;;;;5.21;69.91;101755.98;467025;113;922557;-75
2022/11/08 06:35:53;;;;;;;8.26;7.75;;;;;;;5.24;69.84;101752.96;467011;113;922524;-73
2022/11/08 06:36:58;;;;;;;8.11;7.66;;;;;;;5.28;69.80;101750.83;466525;113;922699;-76
2022/11/08 06:38:01;;;;;;;9.51;8.81;;;;;;;5.32;69.63;101757.62;465534;114;922868;-75
2022/11/08 06:39:08;;;;;;;11.01;10.20;;;;;;;5.35;69.63;101755.45;455594;116;930610;-75
2022/11/08 06:40:11;;;;;;;9.91;9.20;;;;;;;5.40;69.41;101755.02;457368;114;923018;-76
2022/11/08 06:41:18;;;;;;;10.00;9.30;;;;;;;5.42;69.33;101758.41;465740;114;922582;-75
2022/11/08 06:42:21;;;;;;;8.85;8.23;;;;;;;5.46;69.24;101755.23;465459;114;922536;-75
2022/11/08 06:43:24;;;;;;;11.24;10.41;;;;;;;5.49;69.10;101753.24;465724;114;922581;-76
2022/11/08 06:44:28;;;;;;;13.04;12.07;;;;;;;5.52;68.96;101755.63;465595;114;922917;-75
2022/11/08 06:45:31;;;;;;;12.45;11.46;;;;;;;5.55;68.81;101753.48;465616;114;930493;-75
2022/11/08 06:46:35;;;;;;;13.58;12.44;;;;;;;5.58;68.76;101750.45;472792;112;922544;-75
2022/11/08 06:47:50;;;;;;;13.14;12.10;;;;;;;5.63;68.64;101752.69;472596;112;922686;-75
2022/11/08 06:49:08;;;;;;;11.60;10.71;;;;;;;5.66;68.49;101755.11;465730;114;922520;-75
2022/11/08 06:50:11;;;;;;;11.09;10.29;;;;;;;5.69;68.21;101750.23;465686;114;922574;-75
2022/11/08 06:51:14;;;;;;;10.49;8.54;;;;;;;5.71;68.15;101750.94;465697;114;922493;-75
2022/11/08 06:52:17;;;;;;;8.88;8.16;;;;;;;5.75;68.04;101751.47;465632;114;922898;-75
2022/11/08 06:53:20;;;;;;;7.96;7.39;;;;;;;5.78;67.97;101753.88;465715;114;922513;-75
2022/11/08 06:54:24;;;;;;;9.49;7.87;;;;;;;5.80;67.87;101749.99;465591;114;923089;-76
2022/11/08 06:55:30;;;;;;;8.77;8.19;;;;;;;5.82;67.81;101747.99;469188;111;922473;-74
2022/11/08 06:56:34;;;;;;;8.13;7.64;;;;;;;5.85;67.70;101749.52;475688;111;922476;-75
2022/11/08 06:57:37;;;;;;;7.48;7.06;;;;;;;5.89;67.62;101736.58;475744;109;922492;-75
2022/11/08 06:58:40;;;;;;;8.02;7.56;;;;;;;5.92;67.38;101742.52;475832;111;922472;-75
2022/11/08 06:59:43;;;;;;;7.92;7.44;;;;;;;5.93;67.19;101741.52;475840;111;922539;-75
2022/11/08 07:00:46;;;;;;;7.72;7.25;;;;;;;5.95;67.10;101739.52;475865;111;922510;-76
2022/11/08 07:01:49;;;;;;;7.91;7.44;;;;;;;5.97;67.19;101737.48;475877;111;922445;-77
2022/11/08 07:02:55;;;;;;;8.27;7.44;;;;;;;6.00;67.11;101733.62;475086;109;922502;-74
2022/11/08 07:04:06;;;;;;;7.66;7.08;;;;;;;6.05;66.77;101734.86;477041;110;947118;-74
2022/11/08 07:05:10;;;;;;;7.69;7.16;;;;;;;6.05;66.77;101734.86;465493;113;922593;-75
2022/11/08 07:06:14;;;;;;;7.55;7.05;;;;;;;6.08;66.79;101739.09;465489;113;922459;-75
2022/11/08 07:07:17;;;;;;;8.10;7.50;;;;;;;6.08;66.70;101731.82;465564;114;922967;-77
2022/11/08 07:08:20;;;;;;;8.04;7.43;;;;;;;6.12;66.65;101732.38;471496;112;922641;-76
2022/11/08 07:09:25;;;;;;;7.72;7.11;;;;;;;6.14;66.51;101730.34;471210;112;922591;-75
2022/11/08 07:10:29;;;;;;;7.78;6.78;;;;;;;6.15;66.42;101726.62;471514;112;922510;-77
2022/11/08 07:11:32;;;;;;;7.66;7.16;;;;;;;6.17;66.25;101732.75;471347;112;922461;-75
2022/11/08 07:12:36;;;;;;;7.63;7.13;;;;;;;6.17;66.19;101733.60;471422;112;922925;-76
2022/11/08 07:13:39;;;;;;;8.39;7.86;;;;;;;6.16;66.11;101729.19;471508;112;922470;-76
2022/11/08 07:14:42;;;;;;;8.11;7.46;;;;;;;6.16;66.05;101726.48;471522;112;922467;-76
2022/11/08 07:15:46;;;;;;;7.87;7.37;;;;;;;6.18;65.91;101731.71;471512;112;922646;-76
2022/11/08 07:16:50;;;;;;;8.59;7.97;;;;;;;6.19;65.90;101736.13;471335;112;922794;-74
2022/11/08 07:17:53;;;;;;;7.14;6.64;;;;;;;6.19;65.96;101731.56;471360;112;931006;-74
2022/11/08 07:18:56;;;;;;;8.34;7.84;;;;;;;6.21;65.82;101726.85;461789;114;922663;-75
2022/11/08 07:19:59;;;;;;;8.34;7.73;;;;;;;6.23;65.76;101727.52;462466;112;922440;-75
2022/11/08 07:21:03;;;;;;;8.78;8.08;;;;;;;6.25;65.73;101730.08;471489;112;922816;-75
2022/11/08 07:22:06;;;;;;;8.67;8.01;;;;;;;6.26;65.75;101729.08;471449;112;922587;-75
2022/11/08 07:23:10;;;;;;;8.42;7.92;;;;;;;6.28;65.54;101725.19;471293;112;930361;-75
2022/11/08 07:24:13;;;;;;;7.96;7.39;;;;;;;6.29;65.36;101739.58;471435;112;922492;-75
2022/11/08 07:25:15;;;;;;;8.06;7.46;;;;;;;6.31;65.41;101729.45;471574;112;923210;-76
2022/11/08 07:26:19;;;;;;;8.04;7.26;;;;;;;6.32;65.28;101727.59;471560;112;922494;-76
2022/11/08 07:27:22;;;;;;;8.40;7.64;;;;;;;6.34;65.23;101729.12;471533;112;922807;-76
2022/11/08 07:28:25;;;;;;;11.31;7.54;;;;;;;6.35;65.09;101730.82;471526;112;922870;-76
2022/11/08 07:29:28;;;;;;;7.42;6.94;;;;;;;6.36;65.01;101729.81;471496;112;923114;-75
2022/11/08 07:30:32;;;;;;;7.89;7.19;;;;;;;6.36;64.90;101727.11;463921;112;923272;-76
2022/11/08 07:31:35;;;;;;;7.19;6.66;;;;;;;6.40;64.87;101738.47;463135;114;922504;-74
2022/11/08 07:32:38;;;;;;;7.79;7.09;;;;;;;6.40;64.76;101730.34;463234;114;923083;-75
2022/11/08 07:33:41;;;;;;;8.13;7.53;;;;;;;6.41;64.69;101724.77;464263;112;923136;-76
2022/11/08 07:34:44;;;;;;;6.85;6.29;;;;;;;6.43;64.60;101728.18;471541;112;922986;-75
2022/11/08 07:35:48;;;;;;;7.33;6.84;;;;;;;6.45;64.56;101733.45;471518;112;922496;-74
2022/11/08 07:36:51;;;;;;;7.62;6.92;;;;;;;6.46;64.61;101727.84;469507;112;922998;-75
2022/11/08 07:37:54;;;;;;;7.79;7.27;;;;;;;6.49;64.54;101724.83;463167;114;922517;-76
2022/11/08 07:38:57;;;;;;;7.04;6.56;;;;;;;6.52;64.43;101723.64;463187;114;922585;-75
2022/11/08 07:40:02;;;;;;;7.10;6.69;;;;;;;6.53;64.35;101720.78;462343;114;922513;-75
2022/11/08 07:41:05;;;;;;;7.24;6.53;;;;;;;6.53;64.26;101722.64;463251;114;922597;-77
2022/11/08 07:42:08;;;;;;;6.98;6.41;;;;;;;6.54;64.14;101718.92;463275;114;922447;-75
2022/11/08 07:43:11;;;;;;;6.90;6.41;;;;;;;6.55;64.05;101726.91;463159;114;922417;-75
2022/11/08 07:44:15;;;;;;;6.78;6.32;;;;;;;6.54;63.79;101724.34;463100;114;922845;-75
2022/11/08 07:45:18;;;;;;;7.00;6.46;;;;;;;6.52;63.72;101726.36;463207;114;922518;-75
2022/11/08 07:46:22;;;;;;;7.04;6.48;;;;;;;6.51;63.76;101727.36;463251;114;922855;-77
2022/11/08 07:47:25;;;;;;;7.24;6.74;;;;;;;6.50;63.78;101733.81;463158;114;922567;-76
2022/11/08 07:48:29;;;;;;;6.86;6.42;;;;;;;6.50;63.70;101731.11;463225;114;922493;-77
2022/11/08 07:49:35;;;;;;;6.73;6.33;;;;;;;6.51;63.68;101721.94;462957;114;922912;-75
2022/11/08 07:50:39;;;;;;;7.46;6.93;;;;;;;6.51;63.71;101725.50;463086;114;922467;-75
2022/11/08 07:51:43;;;;;;;6.65;6.22;;;;;;;6.53;63.84;101726.20;465755;112;930392;-75
2022/11/08 07:52:50;;;;;;;6.75;6.35;;;;;;;6.57;63.69;101729.42;471457;112;923016;-76
2022/11/08 07:53:53;;;;;;;7.31;6.82;;;;;;;6.57;63.62;101724.86;471341;112;922674;-75
2022/11/08 07:54:58;;;;;;;6.81;6.41;;;;;;;6.59;63.62;101727.42;471349;112;922909;-75
2022/11/08 07:56:01;;;;;;;6.81;6.41;;;;;;;6.61;63.63;101730.83;471539;112;923590;-75
2022/11/08 07:57:04;;;;;;;7.47;6.97;;;;;;;6.63;63.56;101728.79;471476;112;923042;-76
2022/11/08 07:58:09;;;;;;;7.14;6.62;;;;;;;6.64;63.51;101725.92;471434;112;922526;-75